Time;durP1;ratioP1;P1;durP2;ratioP2;P2;SDS_P1;SDS_P2;PMS_P1;PMS_P2;Temp;Humidity;BMP_temperature;BMP_pressure;BME280_temperature;BME280_humidity;BME280_pressure;Samples;Min_cycle;Max_cycle;Signal;HPM_P1;HPM_P2
2023/12/14 00:01:33;;;;;;;;;;;8.90;93.70;;;;;;5092557;28;20531;-74
2023/12/14 00:03:58;;;;;;;;;;;8.90;93.70;;;;;;5092202;28;19957;-74
2023/12/14 00:06:24;;;;;;;;;;;8.90;93.70;;;;;;5074208;28;20006;-74
2023/12/14 00:08:49;;;;;;;;;;;8.90;93.70;;;;;;5092502;28;20492;-74
2023/12/14 00:11:15;;;;;;;;;;;8.90;93.70;;;;;;5092330;28;19955;-74
2023/12/14 00:13:41;;;;;;;;;;;8.90;93.70;;;;;;5092392;28;19908;-74
2023/12/14 00:16:06;;;;;;;;;;;8.90;93.70;;;;;;5092436;28;19948;-74
2023/12/14 00:18:32;;;;;;;;;;;8.90;93.70;;;;;;5092319;28;19919;-75
2023/12/14 00:20:57;;;;;;;;;;;8.90;93.70;;;;;;5074189;28;19951;-74
2023/12/14 00:23:23;;;;;;;;;;;8.90;93.70;;;;;;5073877;28;19908;-74
2023/12/14 00:25:49;;;;;;;;;;;8.90;93.70;;;;;;5091974;28;19924;-74
2023/12/14 00:28:15;;;;;;;;;;;8.90;93.70;;;;;;5092177;28;19950;-74
2023/12/14 00:30:40;;;;;;;;;;;8.90;93.70;;;;;;5092016;28;19911;-74
2023/12/14 00:33:06;;;;;;;;;;;8.90;93.70;;;;;;5073946;28;19908;-74
2023/12/14 00:35:31;;;;;;;;;;;8.90;93.70;;;;;;5090870;28;19904;-74
2023/12/14 00:37:57;;;;;;;;;;;8.90;93.70;;;;;;5073814;28;19908;-74
2023/12/14 00:40:22;;;;;;;;;;;8.90;93.70;;;;;;5091847;28;20001;-74
2023/12/14 00:42:48;;;;;;;;;;;8.90;93.70;;;;;;5091809;28;19912;-74
2023/12/14 00:45:14;;;;;;;;;;;8.90;93.70;;;;;;5091943;28;19961;-74
2023/12/14 00:47:39;;;;;;;;;;;8.90;93.70;;;;;;5091853;28;20354;-74
2023/12/14 00:50:05;;;;;;;;;;;9.00;93.70;;;;;;5091797;28;20003;-74
2023/12/14 00:52:31;;;;;;;;;;;8.90;93.70;;;;;;5091702;28;20284;-74
2023/12/14 00:54:56;;;;;;;;;;;8.90;93.70;;;;;;5091665;28;19911;-74
2023/12/14 00:57:22;;;;;;;;;;;8.90;93.70;;;;;;5091437;28;19915;-74
2023/12/14 00:59:47;;;;;;;;;;;8.90;93.70;;;;;;5091574;28;19912;-74
2023/12/14 01:02:13;;;;;;;;;;;8.90;93.70;;;;;;5091624;28;19908;-74
2023/12/14 01:04:38;;;;;;;;;;;8.90;93.70;;;;;;5091650;28;19908;-74
2023/12/14 01:07:04;;;;;;;;;;;8.90;93.60;;;;;;5091713;28;20340;-75
2023/12/14 01:09:30;;;;;;;;;;;8.80;93.60;;;;;;5091600;28;19908;-75
2023/12/14 01:11:55;;;;;;;;;;;8.80;93.60;;;;;;5073384;28;19916;-75
2023/12/14 01:14:21;;;;;;;;;;;8.70;93.60;;;;;;5091413;28;19961;-75
2023/12/14 01:16:46;;;;;;;;;;;8.70;93.60;;;;;;5091511;28;19974;-74
2023/12/14 01:19:12;;;;;;;;;;;8.70;93.60;;;;;;5073393;28;20454;-75
2023/12/14 01:21:37;;;;;;;;;;;8.70;93.60;;;;;;5073274;28;19931;-74
2023/12/14 01:24:03;;;;;;;;;;;8.70;93.70;;;;;;5090146;28;19926;-75
2023/12/14 01:26:29;;;;;;;;;;;8.70;93.70;;;;;;5073078;28;20261;-75
2023/12/14 01:28:54;;;;;;;;;;;8.70;93.70;;;;;;5073361;28;19916;-75
2023/12/14 01:31:23;;;;;;;;;;;8.70;93.70;;;;;;5091326;28;20342;-75
2023/12/14 01:33:48;;;;;;;;;;;8.80;93.70;;;;;;5091339;28;19912;-74
2023/12/14 01:36:26;;;;;;;;;;;8.80;93.70;;;;;;5091379;28;19965;-75
2023/12/14 01:38:52;;;;;;;;;;;8.80;93.70;;;;;;5091156;28;19912;-74
2023/12/14 01:41:18;;;;;;;;;;;8.80;93.70;;;;;;5073253;28;20437;-75
2023/12/14 01:43:44;;;;;;;;;;;8.80;93.70;;;;;;5089875;28;19958;-74
2023/12/14 01:46:09;;;;;;;;;;;8.90;93.70;;;;;;5073206;28;19912;-75
2023/12/14 01:48:35;;;;;;;;;;;8.90;93.60;;;;;;5073048;28;20003;-75
2023/12/14 01:51:01;;;;;;;;;;;8.80;93.60;;;;;;5091226;28;19907;-75
2023/12/14 01:53:26;;;;;;;;;;;8.80;93.60;;;;;;5091100;28;19904;-75
2023/12/14 01:55:52;;;;;;;;;;;8.80;93.70;;;;;;5091229;28;19904;-74
2023/12/14 01:58:18;;;;;;;;;;;8.70;93.70;;;;;;5091091;28;19999;-76
2023/12/14 02:00:56;;;;;;;;;;;8.70;93.70;;;;;;5091092;28;19904;-75
2023/12/14 02:03:22;;;;;;;;;;;8.70;93.70;;;;;;5072789;28;20249;-75
2023/12/14 02:05:47;;;;;;;;;;;8.70;93.70;;;;;;5091085;28;19908;-75
2023/12/14 02:08:13;;;;;;;;;;;8.80;93.70;;;;;;5073776;28;20340;-75
2023/12/14 02:10:38;;;;;;;;;;;8.80;93.70;;;;;;5094770;28;19936;-75
2023/12/14 02:13:04;;;;;;;;;;;8.80;93.70;;;;;;5094701;28;19912;-75
2023/12/14 02:15:30;;;;;;;;;;;8.80;93.80;;;;;;5076575;28;19952;-75
2023/12/14 02:17:55;;;;;;;;;;;8.90;93.80;;;;;;5094746;28;19936;-75
2023/12/14 02:20:21;;;;;;;;;;;8.90;93.80;;;;;;5094738;28;20413;-75
2023/12/14 02:22:53;;;;;;;;;;;8.90;93.80;;;;;;5094586;28;19904;-74
2023/12/14 02:25:19;;;;;;;;;;;8.90;93.80;;;;;;5094379;28;19907;-74
2023/12/14 02:27:44;;;;;;;;;;;8.90;93.80;;;;;;5094525;28;19915;-75
2023/12/14 02:30:10;;;;;;;;;;;9.00;93.80;;;;;;5094414;28;19904;-75
2023/12/14 02:32:37;;;;;;;;;;;9.00;93.80;;;;;;5092899;28;19904;-75
2023/12/14 02:35:02;;;;;;;;;;;9.00;93.80;;;;;;5094347;28;19912;-75
2023/12/14 02:37:28;;;;;;;;;;;9.10;93.80;;;;;;5094300;28;19908;-75
2023/12/14 02:39:53;;;;;;;;;;;9.10;93.80;;;;;;5076018;28;19915;-75
2023/12/14 02:42:19;;;;;;;;;;;9.10;93.80;;;;;;5075837;28;20042;-75
2023/12/14 02:44:45;;;;;;;;;;;9.20;93.90;;;;;;5075826;28;19908;-75
2023/12/14 02:47:10;;;;;;;;;;;9.20;93.80;;;;;;5094092;28;19931;-75
2023/12/14 02:49:36;;;;;;;;;;;9.30;93.90;;;;;;5076019;28;20018;-75
2023/12/14 02:52:01;;;;;;;;;;;9.30;93.90;;;;;;5093891;28;20334;-74
2023/12/14 02:54:27;;;;;;;;;;;9.30;93.90;;;;;;5094090;28;19927;-75
2023/12/14 02:56:52;;;;;;;;;;;9.30;93.90;;;;;;5075682;28;19915;-74
2023/12/14 02:59:18;;;;;;;;;;;9.40;93.90;;;;;;5075764;28;19916;-75
2023/12/14 03:01:43;;;;;;;;;;;9.40;93.90;;;;;;5093810;28;20283;-75
2023/12/14 03:04:09;;;;;;;;;;;9.40;93.90;;;;;;5092511;28;19912;-75
2023/12/14 03:06:34;;;;;;;;;;;9.40;93.90;;;;;;5075647;28;19930;-75
2023/12/14 03:09:00;;;;;;;;;;;9.50;93.90;;;;;;5075474;28;19970;-75
2023/12/14 03:11:26;;;;;;;;;;;9.50;93.80;;;;;;5093615;28;19912;-75
2023/12/14 03:13:51;;;;;;;;;;;9.50;93.80;;;;;;5093610;28;20003;-75
2023/12/14 03:16:18;;;;;;;;;;;9.50;93.80;;;;;;5093669;28;20415;-76
2023/12/14 03:18:43;;;;;;;;;;;9.50;93.80;;;;;;5093411;28;19999;-75
2023/12/14 03:21:09;;;;;;;;;;;9.50;93.80;;;;;;5093347;28;20541;-75
2023/12/14 03:23:35;;;;;;;;;;;9.50;93.80;;;;;;5093414;28;19927;-75
2023/12/14 03:26:01;;;;;;;;;;;9.40;93.80;;;;;;5075016;28;19924;-75
2023/12/14 03:28:27;;;;;;;;;;;9.40;93.80;;;;;;5093348;28;20003;-75
2023/12/14 03:30:52;;;;;;;;;;;9.40;93.80;;;;;;5093330;28;20437;-74
2023/12/14 03:33:18;;;;;;;;;;;9.40;93.90;;;;;;5093198;28;20057;-75
2023/12/14 03:35:46;;;;;;;;;;;9.40;93.90;;;;;;5093205;28;19908;-75
2023/12/14 03:38:13;;;;;;;;;;;9.40;93.90;;;;;;5093190;28;19908;-76
2023/12/14 03:40:38;;;;;;;;;;;9.40;93.90;;;;;;5093031;28;19908;-75
2023/12/14 03:43:04;;;;;;;;;;;9.40;93.90;;;;;;5093012;28;19931;-75
2023/12/14 03:45:30;;;;;;;;;;;9.40;93.90;;;;;;5093092;28;19919;-75
2023/12/14 03:47:56;;;;;;;;;;;9.40;93.90;;;;;;5092974;28;19904;-75
2023/12/14 03:50:22;;;;;;;;;;;9.40;93.90;;;;;;5092950;28;20447;-75
2023/12/14 03:52:47;;;;;;;;;;;9.40;93.90;;;;;;5074554;28;20014;-75
2023/12/14 03:55:15;;;;;;;;;;;9.30;93.90;;;;;;5074672;28;19908;-75
2023/12/14 03:57:40;;;;;;;;;;;9.30;93.90;;;;;;5075073;28;20314;-75
2023/12/14 04:00:09;;;;;;;;;;;9.40;93.90;;;;;;5074431;28;19916;-75
2023/12/14 04:02:34;;;;;;;;;;;9.40;93.90;;;;;;5074467;28;19908;-75
2023/12/14 04:05:00;;;;;;;;;;;9.40;93.90;;;;;;5092610;28;19908;-75
2023/12/14 04:07:25;;;;;;;;;;;9.40;93.90;;;;;;5074317;28;20372;-75
2023/12/14 04:09:51;;;;;;;;;;;9.50;93.90;;;;;;5092552;28;19926;-75
2023/12/14 04:12:17;;;;;;;;;;;9.50;93.90;;;;;;5074144;28;19908;-75
2023/12/14 04:14:42;;;;;;;;;;;9.50;93.90;;;;;;5092421;28;19966;-75
2023/12/14 04:17:08;;;;;;;;;;;9.50;93.90;;;;;;5074127;28;20371;-75
2023/12/14 04:19:33;;;;;;;;;;;9.50;93.90;;;;;;5092310;28;20261;-75
2023/12/14 04:21:59;;;;;;;;;;;9.50;93.90;;;;;;5092335;28;20364;-75
2023/12/14 04:24:24;;;;;;;;;;;9.50;93.90;;;;;;5074070;28;19916;-75
2023/12/14 04:26:50;;;;;;;;;;;9.50;93.90;;;;;;5090740;28;19941;-75
2023/12/14 04:29:16;;;;;;;;;;;9.50;93.90;;;;;;5092575;28;19949;-75
2023/12/14 04:31:41;;;;;;;;;;;9.50;93.90;;;;;;5091692;28;19940;-75
2023/12/14 04:34:11;;;;;;;;;;;9.50;93.90;;;;;;5092054;28;19908;-75
2023/12/14 04:36:37;;;;;;;;;;;9.50;93.90;;;;;;5092092;28;19912;-75
2023/12/14 04:39:03;;;;;;;;;;;9.50;93.90;;;;;;5073839;28;19918;-75
2023/12/14 04:41:28;;;;;;;;;;;9.50;93.90;;;;;;5073970;28;19904;-75
2023/12/14 04:43:54;;;;;;;;;;;9.50;94.00;;;;;;5073964;28;20332;-75
2023/12/14 04:46:20;;;;;;;;;;;9.60;94.00;;;;;;5073819;28;19908;-75
2023/12/14 04:48:45;;;;;;;;;;;9.60;94.00;;;;;;5091810;28;19973;-75
2023/12/14 04:51:11;;;;;;;;;;;9.70;94.00;;;;;;5073642;28;19908;-75
2023/12/14 04:53:37;;;;;;;;;;;9.70;94.00;;;;;;5092068;28;20286;-75
2023/12/14 04:56:03;;;;;;;;;;;9.70;94.00;;;;;;5073588;28;19915;-75
2023/12/14 04:58:28;;;;;;;;;;;9.70;94.00;;;;;;5073424;28;20295;-75
2023/12/14 05:00:54;;;;;;;;;;;9.80;94.00;;;;;;5091712;28;19908;-75
2023/12/14 05:03:19;;;;;;;;;;;9.80;94.00;;;;;;5091494;28;19944;-75
2023/12/14 05:05:45;;;;;;;;;;;9.80;94.00;;;;;;5091650;28;19912;-75
2023/12/14 05:08:10;;;;;;;;;;;9.80;94.00;;;;;;5091699;28;19990;-75
2023/12/14 05:10:36;;;;;;;;;;;9.80;94.00;;;;;;5093746;28;20378;-76
2023/12/14 05:13:01;;;;;;;;;;;9.90;94.00;;;;;;5073314;28;19912;-75
2023/12/14 05:15:27;;;;;;;;;;;9.90;94.00;;;;;;5091532;28;19904;-75
2023/12/14 05:17:52;;;;;;;;;;;9.90;93.90;;;;;;5091419;28;19912;-75
2023/12/14 05:20:20;;;;;;;;;;;9.90;94.00;;;;;;5073246;28;19911;-76
2023/12/14 05:22:45;;;;;;;;;;;9.90;94.10;;;;;;5073646;28;19911;-75
2023/12/14 05:25:11;;;;;;;;;;;10.00;94.10;;;;;;5072944;28;19908;-75
2023/12/14 05:27:36;;;;;;;;;;;10.00;94.10;;;;;;5091530;28;19919;-75
2023/12/14 05:30:03;;;;;;;;;;;10.10;94.10;;;;;;5073315;28;20396;-75
2023/12/14 05:32:29;;;;;;;;;;;10.10;94.00;;;;;;5091281;28;19909;-75
2023/12/14 05:34:54;;;;;;;;;;;10.10;94.00;;;;;;5091400;28;19908;-76
2023/12/14 05:37:20;;;;;;;;;;;10.20;94.00;;;;;;5091346;28;19908;-76
2023/12/14 05:39:46;;;;;;;;;;;10.20;94.00;;;;;;5091152;28;20375;-76
2023/12/14 05:42:11;;;;;;;;;;;10.20;94.10;;;;;;5091547;28;20295;-72
2023/12/14 05:44:37;;;;;;;;;;;10.20;94.10;;;;;;5094231;28;20419;-75
2023/12/14 05:47:02;;;;;;;;;;;10.20;94.10;;;;;;5095558;28;20306;-76
2023/12/14 05:49:28;;;;;;;;;;;10.20;94.30;;;;;;5076919;28;19912;-75
2023/12/14 05:51:53;;;;;;;;;;;10.30;94.20;;;;;;5076759;28;20359;-75
2023/12/14 05:54:20;;;;;;;;;;;10.30;94.10;;;;;;5095105;28;19931;-75
2023/12/14 05:56:46;;;;;;;;;;;10.30;94.10;;;;;;5077083;28;19911;-75
2023/12/14 05:59:11;;;;;;;;;;;10.30;94.10;;;;;;5076802;28;19916;-75
2023/12/14 06:01:37;;;;;;;;;;;10.30;94.10;;;;;;5094837;28;20372;-75
2023/12/14 06:04:02;;;;;;;;;;;10.20;94.10;;;;;;5094830;28;19911;-75
2023/12/14 06:06:28;;;;;;;;;;;10.10;94.00;;;;;;5076512;28;20300;-75
2023/12/14 06:08:53;;;;;;;;;;;10.10;94.00;;;;;;5076588;28;19908;-75
2023/12/14 06:11:20;;;;;;;;;;;10.00;94.00;;;;;;5094630;28;19908;-76
2023/12/14 06:13:45;;;;;;;;;;;9.90;94.10;;;;;;5094493;28;20003;-75
2023/12/14 06:16:12;;;;;;;;;;;9.80;94.10;;;;;;5076380;28;19955;-76
2023/12/14 06:18:41;;;;;;;;;;;9.70;94.00;;;;;;5094519;28;20288;-75
2023/12/14 06:21:07;;;;;;;;;;;9.70;94.10;;;;;;5076274;28;19904;-75
2023/12/14 06:23:32;;;;;;;;;;;9.60;94.10;;;;;;5076164;28;20287;-76
2023/12/14 06:25:58;;;;;;;;;;;9.50;94.10;;;;;;5094323;28;20002;-75
2023/12/14 06:28:24;;;;;;;;;;;9.50;94.10;;;;;;5076062;28;19908;-75
2023/12/14 06:30:50;;;;;;;;;;;9.40;94.10;;;;;;5076030;28;19935;-75
2023/12/14 06:33:15;;;;;;;;;;;9.40;94.10;;;;;;5094042;28;20360;-75
2023/12/14 06:35:41;;;;;;;;;;;9.30;94.10;;;;;;5076069;28;19916;-75
2023/12/14 06:38:07;;;;;;;;;;;9.30;94.10;;;;;;5094094;28;19991;-75
2023/12/14 06:40:32;;;;;;;;;;;9.30;94.10;;;;;;5075737;28;19914;-75
2023/12/14 06:42:58;;;;;;;;;;;9.30;94.10;;;;;;5094548;28;19919;-76
2023/12/14 06:45:23;;;;;;;;;;;9.20;94.10;;;;;;5075901;28;19908;-76
2023/12/14 06:47:49;;;;;;;;;;;9.10;94.10;;;;;;5075711;28;19918;-73
2023/12/14 06:50:15;;;;;;;;;;;9.10;94.10;;;;;;5075808;28;19977;-76
2023/12/14 06:52:40;;;;;;;;;;;9.10;94.10;;;;;;5075768;28;20355;-76
2023/12/14 06:55:06;;;;;;;;;;;9.00;94.10;;;;;;5093451;28;20286;-75
2023/12/14 06:57:32;;;;;;;;;;;9.00;94.00;;;;;;5094238;28;20423;-76
2023/12/14 06:59:58;;;;;;;;;;;9.00;94.00;;;;;;5093540;28;20018;-75
2023/12/14 07:02:23;;;;;;;;;;;8.90;94.00;;;;;;5075308;28;19915;-73
2023/12/14 07:04:49;;;;;;;;;;;8.90;94.00;;;;;;5093505;28;20006;-74
2023/12/14 07:07:15;;;;;;;;;;;8.90;94.00;;;;;;5078802;28;19915;-76
2023/12/14 07:09:40;;;;;;;;;;;8.80;94.00;;;;;;5080963;28;19980;-73
2023/12/14 07:12:06;;;;;;;;;;;8.80;94.00;;;;;;5081625;28;19981;-74
2023/12/14 07:14:31;;;;;;;;;;;8.80;94.10;;;;;;5075239;28;19912;-76
2023/12/14 07:16:57;;;;;;;;;;;8.80;94.10;;;;;;5075174;28;19919;-74
2023/12/14 07:19:22;;;;;;;;;;;8.80;94.10;;;;;;5093359;28;19912;-76
2023/12/14 07:21:48;;;;;;;;;;;8.80;94.10;;;;;;5093341;28;19908;-76
2023/12/14 07:24:14;;;;;;;;;;;8.80;94.10;;;;;;5093225;28;19952;-74
2023/12/14 07:26:39;;;;;;;;;;;8.80;94.10;;;;;;5074939;28;19923;-76
2023/12/14 07:29:05;;;;;;;;;;;8.80;94.10;;;;;;5093079;28;19916;-76
2023/12/14 07:31:30;;;;;;;;;;;8.80;94.10;;;;;;5093119;28;19904;-76
2023/12/14 07:33:56;;;;;;;;;;;8.80;94.00;;;;;;5093074;28;19915;-76
2023/12/14 07:36:22;;;;;;;;;;;8.70;94.00;;;;;;5092874;28;20003;-76
2023/12/14 07:38:48;;;;;;;;;;;8.70;94.00;;;;;;5074720;28;19912;-76
2023/12/14 07:41:13;;;;;;;;;;;8.70;94.00;;;;;;5074496;28;19912;-76
2023/12/14 07:43:39;;;;;;;;;;;8.60;94.00;;;;;;5092781;28;19991;-74
2023/12/14 07:46:04;;;;;;;;;;;8.60;94.00;;;;;;5092591;28;19938;-74
2023/12/14 07:48:30;;;;;;;;;;;8.60;94.00;;;;;;5093005;28;20340;-74
2023/12/14 07:50:56;;;;;;;;;;;8.60;94.00;;;;;;5092649;28;19912;-74
2023/12/14 07:53:21;;;;;;;;;;;8.50;94.00;;;;;;5092518;28;19920;-75
2023/12/14 07:55:47;;;;;;;;;;;8.50;94.00;;;;;;5074312;28;19908;-74
2023/12/14 07:58:13;;;;;;;;;;;8.40;94.00;;;;;;5074002;28;20421;-74
2023/12/14 08:00:38;;;;;;;;;;;8.40;94.00;;;;;;5092639;28;19918;-74
2023/12/14 08:03:04;;;;;;;;;;;8.40;94.00;;;;;;5073508;28;19912;-74
2023/12/14 08:05:30;;;;;;;;;;;8.50;94.10;;;;;;5073745;28;19912;-74
2023/12/14 08:07:55;;;;;;;;;;;8.50;94.10;;;;;;5073509;28;20049;-75
2023/12/14 08:10:21;;;;;;;;;;;8.50;94.00;;;;;;5092049;28;19916;-74
2023/12/14 08:12:51;;;;;;;;;;;8.60;94.10;;;;;;5092247;28;19915;-74
2023/12/14 08:15:17;;;;;;;;;;;8.60;94.10;;;;;;5074640;28;19908;-74
2023/12/14 08:17:42;;;;;;;;;;;8.70;94.10;;;;;;5073801;28;19916;-74
2023/12/14 08:20:08;;;;;;;;;;;8.80;94.10;;;;;;5091879;28;19923;-74
2023/12/14 08:22:34;;;;;;;;;;;8.80;94.10;;;;;;5092007;28;19911;-75
2023/12/14 08:25:00;;;;;;;;;;;8.80;94.10;;;;;;5091878;28;20370;-74
2023/12/14 08:27:25;;;;;;;;;;;8.90;94.10;;;;;;5073510;28;19920;-73
2023/12/14 08:29:51;;;;;;;;;;;9.00;94.10;;;;;;5073601;28;19955;-74
2023/12/14 08:32:16;;;;;;;;;;;9.00;94.00;;;;;;5091775;28;19927;-76
2023/12/14 08:34:42;;;;;;;;;;;9.10;94.00;;;;;;5091827;28;19999;-76
2023/12/14 08:37:08;;;;;;;;;;;9.10;94.00;;;;;;5091833;28;20367;-73
2023/12/14 08:39:33;;;;;;;;;;;9.10;94.00;;;;;;5073619;28;19939;-75
2023/12/14 08:41:59;;;;;;;;;;;9.10;94.00;;;;;;5091835;28;19915;-74
2023/12/14 08:44:24;;;;;;;;;;;9.20;94.00;;;;;;5091741;28;19909;-74
2023/12/14 08:46:50;;;;;;;;;;;9.20;94.00;;;;;;5092483;28;19914;-77
2023/12/14 08:49:15;;;;;;;;;;;9.20;94.00;;;;;;5092121;28;19911;-74
2023/12/14 08:51:41;;;;;;;;;;;9.30;94.00;;;;;;5074174;28;20011;-74
2023/12/14 08:54:07;;;;;;;;;;;9.30;94.00;;;;;;5091642;28;19918;-74
2023/12/14 08:56:33;;;;;;;;;;;9.30;94.00;;;;;;5091829;28;20363;-76
2023/12/14 08:59:00;;;;;;;;;;;9.30;94.00;;;;;;5092140;28;20253;-74
2023/12/14 09:01:25;;;;;;;;;;;9.30;94.00;;;;;;5092050;28;19904;-74
2023/12/14 09:03:51;;;;;;;;;;;9.40;94.00;;;;;;5092557;28;19908;-73
2023/12/14 09:06:17;;;;;;;;;;;9.40;94.00;;;;;;5092394;28;20356;-74
2023/12/14 09:08:42;;;;;;;;;;;9.40;94.00;;;;;;5092454;28;20229;-73
2023/12/14 09:11:08;;;;;;;;;;;9.40;94.00;;;;;;5093598;28;19912;-73
2023/12/14 09:13:34;;;;;;;;;;;9.40;94.00;;;;;;5084663;28;19912;-75
2023/12/14 09:15:59;;;;;;;;;;;9.50;94.00;;;;;;5113056;28;19904;-75
2023/12/14 09:18:25;;;;;;;;;;;9.50;94.00;;;;;;5094838;28;19973;-68
2023/12/14 09:20:51;;;;;;;;;;;9.50;94.00;;;;;;5093861;28;19965;-73
2023/12/14 09:23:17;;;;;;;;;;;9.50;94.00;;;;;;5112208;28;19994;-76
2023/12/14 09:25:42;;;;;;;;;;;9.60;94.00;;;;;;5111843;28;20336;-75
2023/12/14 09:28:08;;;;;;;;;;;9.50;94.00;;;;;;5111878;28;19911;-74
2023/12/14 09:30:33;;;;;;;;;;;9.60;94.00;;;;;;5111878;28;20247;-74
2023/12/14 09:32:59;;;;;;;;;;;9.60;94.00;;;;;;5111734;28;19904;-75
2023/12/14 09:35:24;;;;;;;;;;;9.60;94.00;;;;;;5111411;28;20419;-75
2023/12/14 09:37:50;;;;;;;;;;;9.70;94.00;;;;;;5111729;28;19904;-73
2023/12/14 09:40:16;;;;;;;;;;;9.70;94.00;;;;;;5111464;28;19954;-73
2023/12/14 09:42:42;;;;;;;;;;;9.70;94.00;;;;;;5093108;28;20382;-75
2023/12/14 09:45:11;;;;;;;;;;;9.70;94.00;;;;;;5112010;28;19908;-76
2023/12/14 09:47:37;;;;;;;;;;;9.80;94.00;;;;;;5112142;28;20351;-74
2023/12/14 09:50:03;;;;;;;;;;;9.80;94.00;;;;;;5112064;28;20275;-74
2023/12/14 09:52:29;;;;;;;;;;;9.80;94.00;;;;;;5112206;28;19999;-76
2023/12/14 09:54:55;;;;;;;;;;;9.80;94.20;;;;;;5112013;28;19904;-74
2023/12/14 09:57:20;;;;;;;;;;;9.80;94.00;;;;;;5094544;28;20037;-76
2023/12/14 09:59:52;;;;;;;;;;;9.90;94.00;;;;;;5112585;28;19912;-74
2023/12/14 10:02:18;;;;;;;;;;;9.90;94.00;;;;;;5112860;28;19914;-75
2023/12/14 10:04:44;;;;;;;;;;;9.90;94.00;;;;;;5094943;28;20283;-75
2023/12/14 10:07:09;;;;;;;;;;;9.90;94.00;;;;;;5113593;28;20367;-75
2023/12/14 10:09:37;;;;;;;;;;;9.90;94.00;;;;;;5113231;28;19998;-75
2023/12/14 10:12:04;;;;;;;;;;;9.90;94.00;;;;;;5113068;28;19960;-75
2023/12/14 10:14:29;;;;;;;;;;;9.90;94.00;;;;;;5113334;28;19911;-75
2023/12/14 10:16:55;;;;;;;;;;;9.90;94.00;;;;;;5112810;28;19925;-75
2023/12/14 10:19:21;;;;;;;;;;;9.90;94.00;;;;;;5093561;28;19923;-75
2023/12/14 10:21:47;;;;;;;;;;;9.90;94.00;;;;;;5109766;28;19904;-75
2023/12/14 10:24:13;;;;;;;;;;;10.00;94.00;;;;;;5110568;28;19972;-75
2023/12/14 10:26:38;;;;;;;;;;;10.00;94.00;;;;;;5108134;28;19920;-76
2023/12/14 10:29:07;;;;;;;;;;;10.00;94.00;;;;;;5089686;28;19948;-75
2023/12/14 10:31:37;;;;;;;;;;;10.00;94.00;;;;;;5109004;28;19904;-75
2023/12/14 10:34:06;;;;;;;;;;;10.00;94.00;;;;;;5109998;28;19904;-75
2023/12/14 10:36:32;;;;;;;;;;;10.00;94.00;;;;;;5091226;28;19915;-75
2023/12/14 10:38:58;;;;;;;;;;;10.10;94.00;;;;;;5109275;28;19919;-75
2023/12/14 10:41:24;;;;;;;;;;;10.00;94.00;;;;;;5110918;28;20282;-75
2023/12/14 10:43:50;;;;;;;;;;;10.10;94.00;;;;;;5113643;28;20048;-71
2023/12/14 10:46:16;;;;;;;;;;;10.10;94.00;;;;;;5114103;28;19998;-76
2023/12/14 10:48:44;;;;;;;;;;;10.10;94.00;;;;;;5096057;28;19908;-76
2023/12/14 10:51:11;;;;;;;;;;;10.10;94.10;;;;;;5114478;28;20283;-75
2023/12/14 10:53:37;;;;;;;;;;;10.20;94.10;;;;;;5114169;28;19912;-76
2023/12/14 10:56:06;;;;;;;;;;;10.20;94.10;;;;;;5114441;28;19904;-75
2023/12/14 10:58:46;;;;;;;;;;;10.30;94.10;;;;;;5113839;28;20359;-75
2023/12/14 11:01:19;;;;;;;;;;;10.30;94.10;;;;;;5095613;28;19914;-75
2023/12/14 11:03:45;;;;;;;;;;;10.40;94.10;;;;;;5079943;28;19908;-75
2023/12/14 11:06:37;;;;;;;;;;;10.40;94.10;;;;;;5114492;28;19910;-75
2023/12/14 11:09:07;;;;;;;;;;;10.50;94.10;;;;;;5111557;28;19946;-75
2023/12/14 11:11:52;;;;;;;;;;;10.50;94.10;;;;;;5113514;28;19908;-73
2023/12/14 11:14:19;;;;;;;;;;;10.60;94.10;;;;;;5095312;28;19910;-74
2023/12/14 11:16:46;;;;;;;;;;;10.60;94.10;;;;;;5113526;28;19990;-74
2023/12/14 11:19:21;;;;;;;;;;;10.60;94.10;;;;;;5113564;28;20322;-75
2023/12/14 11:22:05;;;;;;;;;;;10.70;94.10;;;;;;5115332;28;20253;-75
2023/12/14 11:24:30;;;;;;;;;;;10.60;94.00;;;;;;5122809;27;19973;-73
2023/12/14 11:26:56;;;;;;;;;;;10.60;94.00;;;;;;5115473;28;19955;-73
2023/12/14 11:29:22;;;;;;;;;;;10.70;94.10;;;;;;5115452;28;20004;-74
2023/12/14 11:31:48;;;;;;;;;;;10.70;94.10;;;;;;5115794;28;19915;-74
2023/12/14 11:34:16;;;;;;;;;;;10.80;94.10;;;;;;5115873;28;19907;-74
2023/12/14 11:36:42;;;;;;;;;;;10.80;94.10;;;;;;5097448;28;19912;-73
2023/12/14 11:39:09;;;;;;;;;;;10.80;94.00;;;;;;5080025;28;19964;-75
2023/12/14 11:41:35;;;;;;;;;;;10.80;94.00;;;;;;5114960;28;20268;-73
2023/12/14 11:44:01;;;;;;;;;;;10.80;94.00;;;;;;5115418;28;19907;-74
2023/12/14 11:46:28;;;;;;;;;;;10.80;94.00;;;;;;5114721;28;20008;-73
2023/12/14 11:48:56;;;;;;;;;;;10.80;94.00;;;;;;5115626;28;20081;-74
2023/12/14 11:51:22;;;;;;;;;;;10.80;94.00;;;;;;5096820;28;19972;-75
2023/12/14 11:53:50;;;;;;;;;;;10.70;94.00;;;;;;5115274;28;19907;-74
2023/12/14 11:56:19;;;;;;;;;;;10.70;94.00;;;;;;5115324;28;20006;-75
2023/12/14 11:58:45;;;;;;;;;;;10.70;94.00;;;;;;5115344;28;19907;-74
2023/12/14 12:01:14;;;;;;;;;;;10.60;94.00;;;;;;5115090;28;19903;-78
2023/12/14 12:03:40;;;;;;;;;;;10.60;94.00;;;;;;5097088;28;20233;-73
2023/12/14 12:06:05;;;;;;;;;;;10.60;94.00;;;;;;5097047;28;20346;-74
2023/12/14 12:08:41;;;;;;;;;;;10.60;94.10;;;;;;5114978;28;19955;-73
2023/12/14 12:11:07;;;;;;;;;;;10.60;94.10;;;;;;5109313;28;20249;-74
2023/12/14 12:13:34;;;;;;;;;;;10.70;94.10;;;;;;5113166;28;19915;-67
2023/12/14 12:15:59;;;;;;;;;;;10.70;94.10;;;;;;5092229;28;19911;-73
2023/12/14 12:18:26;;;;;;;;;;;10.80;94.10;;;;;;5096339;28;20351;-73
2023/12/14 12:20:53;;;;;;;;;;;10.80;94.10;;;;;;5114646;28;19918;-73
2023/12/14 12:23:18;;;;;;;;;;;10.90;94.10;;;;;;5092843;28;19908;-74
2023/12/14 12:25:44;;;;;;;;;;;10.90;94.00;;;;;;5093901;28;19920;-73
2023/12/14 12:28:09;;;;;;;;;;;10.90;94.00;;;;;;5094476;28;19908;-74
2023/12/14 12:30:35;;;;;;;;;;;10.90;94.00;;;;;;5105669;28;19908;-75
2023/12/14 12:33:01;;;;;;;;;;;10.90;94.00;;;;;;5106795;28;20006;-75
2023/12/14 12:35:29;;;;;;;;;;;10.90;94.00;;;;;;5114261;28;19958;-74
2023/12/14 12:37:55;;;;;;;;;;;10.90;94.00;;;;;;5114072;28;19915;-75
2023/12/14 12:40:21;;;;;;;;;;;10.90;94.00;;;;;;5081267;28;20379;-73
2023/12/14 12:42:50;;;;;;;;;;;11.00;94.00;;;;;;5104122;28;19994;-73
2023/12/14 12:45:18;;;;;;;;;;;11.00;94.00;;;;;;5092481;28;19937;-74
2023/12/14 12:47:44;;;;;;;;;;;11.00;94.00;;;;;;5110615;28;19912;-75
2023/12/14 12:50:10;;;;;;;;;;;11.00;94.00;;;;;;5114126;28;19920;-75
2023/12/14 12:52:37;;;;;;;;;;;11.00;94.00;;;;;;5113616;28;20257;-74
2023/12/14 12:55:04;;;;;;;;;;;11.00;94.00;;;;;;5113540;28;19923;-74
2023/12/14 12:57:29;;;;;;;;;;;10.90;93.90;;;;;;5110218;28;20350;-74
2023/12/14 12:59:55;;;;;;;;;;;10.90;94.00;;;;;;5113627;28;19911;-75
2023/12/14 13:02:21;;;;;;;;;;;10.90;93.90;;;;;;5113823;28;19915;-74
2023/12/14 13:04:46;;;;;;;;;;;11.00;94.00;;;;;;5104157;28;19911;-74
2023/12/14 13:07:12;;;;;;;;;;;11.00;94.00;;;;;;5110263;28;19908;-74
2023/12/14 13:09:38;;;;;;;;;;;11.00;94.00;;;;;;5113698;28;19914;-75
2023/12/14 13:12:04;;;;;;;;;;;11.00;94.00;;;;;;5112555;28;20003;-76
2023/12/14 13:14:31;;;;;;;;;;;10.90;94.00;;;;;;5096784;28;20448;-75
2023/12/14 13:16:58;;;;;;;;;;;11.00;94.00;;;;;;5114413;28;19903;-75
2023/12/14 13:19:24;;;;;;;;;;;11.00;94.00;;;;;;5098840;28;19908;-74
2023/12/14 13:21:49;;;;;;;;;;;11.00;94.00;;;;;;5099526;28;19911;-73
2023/12/14 13:24:18;;;;;;;;;;;11.00;94.00;;;;;;5108447;28;19911;-73
2023/12/14 13:26:43;;;;;;;;;;;11.00;94.00;;;;;;5073148;28;20596;-74
2023/12/14 13:29:10;;;;;;;;;;;11.00;94.00;;;;;;5085483;28;19946;-73
2023/12/14 13:31:35;;;;;;;;;;;11.10;94.00;;;;;;5082441;28;19920;-73
2023/12/14 13:34:01;;;;;;;;;;;11.10;94.00;;;;;;5089342;28;20053;-73
2023/12/14 13:36:26;;;;;;;;;;;11.10;94.00;;;;;;5090044;28;19981;-73
2023/12/14 13:38:52;;;;;;;;;;;11.10;94.10;;;;;;5091671;28;20360;-74
2023/12/14 13:41:17;;;;;;;;;;;11.10;94.10;;;;;;5090758;28;19920;-74
2023/12/14 13:43:46;;;;;;;;;;;11.20;94.10;;;;;;5072690;28;19919;-73
2023/12/14 13:46:11;;;;;;;;;;;11.20;94.20;;;;;;5087841;28;19947;-73
2023/12/14 13:48:37;;;;;;;;;;;11.30;94.20;;;;;;5091763;28;19996;-74
2023/12/14 13:51:03;;;;;;;;;;;11.30;94.10;;;;;;5091596;28;19908;-74
2023/12/14 13:53:28;;;;;;;;;;;11.40;94.10;;;;;;5091544;28;19908;-74
2023/12/14 13:55:54;;;;;;;;;;;11.40;94.10;;;;;;5091740;28;19904;-74
2023/12/14 13:58:19;;;;;;;;;;;11.40;94.00;;;;;;5092022;28;20354;-74
2023/12/14 14:00:45;;;;;;;;;;;11.40;94.00;;;;;;5091566;28;20010;-74
2023/12/14 14:03:10;;;;;;;;;;;11.30;93.90;;;;;;5091260;28;19916;-75
2023/12/14 14:05:36;;;;;;;;;;;11.30;93.90;;;;;;5095023;28;19908;-73
2023/12/14 14:08:02;;;;;;;;;;;11.30;93.90;;;;;;5095784;28;19912;-74
2023/12/14 14:10:27;;;;;;;;;;;11.20;94.00;;;;;;5094405;28;19983;-73
2023/12/14 14:12:53;;;;;;;;;;;11.20;94.00;;;;;;5095492;28;19915;-73
2023/12/14 14:15:19;;;;;;;;;;;11.20;94.00;;;;;;5094204;28;19915;-75
2023/12/14 14:17:47;;;;;;;;;;;11.10;94.00;;;;;;5095489;28;19951;-74
2023/12/14 14:20:13;;;;;;;;;;;11.10;94.00;;;;;;5095201;28;19908;-75